Weather at Chicago O'Hare International Airport

Public forecast

Using degrees Fahrenheit for public forecast. Weather courtesy of forecast.io.

Current aviation weather report (METAR) for Chicago O'Hare International Airport

Retrieved 2021/01/22 20:51 UTC (43 minutes ago):

KORD 222051Z 29007KT 10SM FEW030 M07/M17 A3016 RMK AO2 SLP224 T10721172 53006

Aviation forecast (TAF) for Chicago O'Hare International Airport

Retrieved 2021/01/22 18:36 UTC (3 hours ago):

TAF KORD 221735Z 2218/2324 31011KT P6SM SKC FM230200 31007KT P6SM SKC FM231400 22007KT P6SM SCT200 FM232000 16007KT P6SM OVC090